sensor_id;sensor_type;location;lat;lon;timestamp;P1;durP1;ratioP1;P2;durP2;ratioP2
20669;SDS011;10494;50.868;4.180;2023-05-10T00:02:09;19.83;;;8.32;;
20669;SDS011;10494;50.868;4.180;2023-05-10T00:04:34;19.38;;;8.93;;
20669;SDS011;10494;50.868;4.180;2023-05-10T00:07:00;20.42;;;9.75;;
20669;SDS011;10494;50.868;4.180;2023-05-10T00:09:26;19.05;;;8.63;;
20669;SDS011;10494;50.868;4.180;2023-05-10T00:11:52;19.48;;;9.10;;
20669;SDS011;10494;50.868;4.180;2023-05-10T00:14:17;19.17;;;9.73;;
20669;SDS011;10494;50.868;4.180;2023-05-10T00:16:43;15.85;;;8.60;;
20669;SDS011;10494;50.868;4.180;2023-05-10T00:19:09;19.75;;;9.65;;
20669;SDS011;10494;50.868;4.180;2023-05-10T00:21:35;21.15;;;10.20;;
20669;SDS011;10494;50.868;4.180;2023-05-10T00:24:01;19.77;;;9.50;;
20669;SDS011;10494;50.868;4.180;2023-05-10T00:26:26;23.35;;;9.20;;
20669;SDS011;10494;50.868;4.180;2023-05-10T00:28:52;18.13;;;9.52;;
20669;SDS011;10494;50.868;4.180;2023-05-10T00:31:18;21.25;;;9.32;;
20669;SDS011;10494;50.868;4.180;2023-05-10T00:33:43;17.17;;;9.05;;
20669;SDS011;10494;50.868;4.180;2023-05-10T00:36:09;25.83;;;9.23;;
20669;SDS011;10494;50.868;4.180;2023-05-10T00:38:35;22.13;;;9.85;;
20669;SDS011;10494;50.868;4.180;2023-05-10T00:41:00;19.35;;;9.60;;
20669;SDS011;10494;50.868;4.180;2023-05-10T00:43:26;24.13;;;10.70;;
20669;SDS011;10494;50.868;4.180;2023-05-10T00:45:52;21.88;;;10.45;;
20669;SDS011;10494;50.868;4.180;2023-05-10T00:48:18;24.83;;;9.82;;
20669;SDS011;10494;50.868;4.180;2023-05-10T00:50:44;20.88;;;10.13;;
20669;SDS011;10494;50.868;4.180;2023-05-10T00:53:10;20.83;;;9.73;;
20669;SDS011;10494;50.868;4.180;2023-05-10T00:55:37;20.98;;;10.73;;
20669;SDS011;10494;50.868;4.180;2023-05-10T00:58:03;23.77;;;10.60;;
20669;SDS011;10494;50.868;4.180;2023-05-10T01:00:32;19.58;;;10.48;;
20669;SDS011;10494;50.868;4.180;2023-05-10T01:02:58;20.25;;;10.23;;
20669;SDS011;10494;50.868;4.180;2023-05-10T01:05:24;25.83;;;11.30;;
20669;SDS011;10494;50.868;4.180;2023-05-10T01:07:51;21.05;;;10.40;;
20669;SDS011;10494;50.868;4.180;2023-05-10T01:10:17;23.45;;;10.15;;
20669;SDS011;10494;50.868;4.180;2023-05-10T01:12:43;22.38;;;10.52;;
20669;SDS011;10494;50.868;4.180;2023-05-10T01:15:11;23.35;;;10.77;;
20669;SDS011;10494;50.868;4.180;2023-05-10T01:17:39;20.63;;;10.23;;
20669;SDS011;10494;50.868;4.180;2023-05-10T01:20:07;20.10;;;10.23;;
20669;SDS011;10494;50.868;4.180;2023-05-10T01:33:19;23.10;;;10.13;;
20669;SDS011;10494;50.868;4.180;2023-05-10T01:36:13;22.52;;;11.35;;
20669;SDS011;10494;50.868;4.180;2023-05-10T01:38:55;27.80;;;12.10;;
20669;SDS011;10494;50.868;4.180;2023-05-10T01:46:41;23.45;;;11.98;;
20669;SDS011;10494;50.868;4.180;2023-05-10T01:49:12;26.83;;;11.77;;
20669;SDS011;10494;50.868;4.180;2023-05-10T01:51:49;27.45;;;12.10;;
20669;SDS011;10494;50.868;4.180;2023-05-10T01:54:17;24.40;;;11.98;;
20669;SDS011;10494;50.868;4.180;2023-05-10T01:56:45;31.73;;;12.55;;
20669;SDS011;10494;50.868;4.180;2023-05-10T01:59:16;22.02;;;12.05;;
20669;SDS011;10494;50.868;4.180;2023-05-10T02:01:44;22.23;;;11.52;;
20669;SDS011;10494;50.868;4.180;2023-05-10T02:04:12;29.25;;;12.57;;
20669;SDS011;10494;50.868;4.180;2023-05-10T02:06:41;27.40;;;12.40;;
20669;SDS011;10494;50.868;4.180;2023-05-10T02:09:09;24.33;;;11.88;;
20669;SDS011;10494;50.868;4.180;2023-05-10T02:11:37;24.90;;;12.75;;
20669;SDS011;10494;50.868;4.180;2023-05-10T02:14:05;30.48;;;12.85;;
20669;SDS011;10494;50.868;4.180;2023-05-10T02:16:34;31.88;;;13.65;;
20669;SDS011;10494;50.868;4.180;2023-05-10T02:19:01;29.25;;;12.90;;
20669;SDS011;10494;50.868;4.180;2023-05-10T02:21:27;29.90;;;14.63;;
20669;SDS011;10494;50.868;4.180;2023-05-10T02:23:54;25.35;;;12.43;;
20669;SDS011;10494;50.868;4.180;2023-05-10T02:26:22;24.05;;;12.48;;
20669;SDS011;10494;50.868;4.180;2023-05-10T02:28:50;27.92;;;13.27;;
20669;SDS011;10494;50.868;4.180;2023-05-10T02:31:17;33.28;;;14.30;;
20669;SDS011;10494;50.868;4.180;2023-05-10T02:33:43;28.67;;;13.07;;
20669;SDS011;10494;50.868;4.180;2023-05-10T02:36:10;31.65;;;13.60;;
20669;SDS011;10494;50.868;4.180;2023-05-10T02:38:38;30.27;;;13.43;;
20669;SDS011;10494;50.868;4.180;2023-05-10T02:41:05;32.33;;;13.23;;
20669;SDS011;10494;50.868;4.180;2023-05-10T02:43:35;29.38;;;13.68;;
20669;SDS011;10494;50.868;4.180;2023-05-10T02:46:02;27.17;;;12.88;;
20669;SDS011;10494;50.868;4.180;2023-05-10T02:48:28;30.77;;;13.50;;
20669;SDS011;10494;50.868;4.180;2023-05-10T02:50:54;26.02;;;12.45;;
20669;SDS011;10494;50.868;4.180;2023-05-10T02:53:30;23.42;;;12.38;;
20669;SDS011;10494;50.868;4.180;2023-05-10T02:55:58;23.50;;;12.82;;
20669;SDS011;10494;50.868;4.180;2023-05-10T02:58:26;26.98;;;13.73;;
20669;SDS011;10494;50.868;4.180;2023-05-10T03:00:52;24.70;;;13.10;;
20669;SDS011;10494;50.868;4.180;2023-05-10T03:03:18;31.08;;;14.35;;
20669;SDS011;10494;50.868;4.180;2023-05-10T03:05:44;30.58;;;14.57;;
20669;SDS011;10494;50.868;4.180;2023-05-10T03:08:10;36.47;;;15.77;;
20669;SDS011;10494;50.868;4.180;2023-05-10T03:10:38;34.40;;;14.75;;
20669;SDS011;10494;50.868;4.180;2023-05-10T03:16:23;28.58;;;15.15;;
20669;SDS011;10494;50.868;4.180;2023-05-10T03:19:11;29.42;;;15.73;;
20669;SDS011;10494;50.868;4.180;2023-05-10T03:21:38;31.98;;;15.30;;
20669;SDS011;10494;50.868;4.180;2023-05-10T03:24:08;33.13;;;15.73;;
20669;SDS011;10494;50.868;4.180;2023-05-10T03:26:36;30.08;;;15.52;;
20669;SDS011;10494;50.868;4.180;2023-05-10T03:29:04;29.73;;;15.75;;
20669;SDS011;10494;50.868;4.180;2023-05-10T03:31:31;32.25;;;16.38;;
20669;SDS011;10494;50.868;4.180;2023-05-10T03:33:57;36.13;;;16.52;;
20669;SDS011;10494;50.868;4.180;2023-05-10T03:36:23;34.30;;;17.30;;
20669;SDS011;10494;50.868;4.180;2023-05-10T03:38:48;38.95;;;17.92;;
20669;SDS011;10494;50.868;4.180;2023-05-10T03:41:14;31.95;;;17.50;;
20669;SDS011;10494;50.868;4.180;2023-05-10T03:43:40;35.85;;;17.67;;
20669;SDS011;10494;50.868;4.180;2023-05-10T03:46:06;38.30;;;18.42;;
20669;SDS011;10494;50.868;4.180;2023-05-10T03:48:32;38.13;;;18.05;;
20669;SDS011;10494;50.868;4.180;2023-05-10T03:50:58;33.65;;;17.42;;
20669;SDS011;10494;50.868;4.180;2023-05-10T03:53:23;35.28;;;17.92;;
20669;SDS011;10494;50.868;4.180;2023-05-10T03:55:49;32.70;;;17.45;;
20669;SDS011;10494;50.868;4.180;2023-05-10T03:58:15;34.88;;;17.90;;
20669;SDS011;10494;50.868;4.180;2023-05-10T04:00:41;39.50;;;19.20;;
20669;SDS011;10494;50.868;4.180;2023-05-10T04:03:09;41.05;;;18.92;;
20669;SDS011;10494;50.868;4.180;2023-05-10T04:05:35;36.50;;;18.38;;
20669;SDS011;10494;50.868;4.180;2023-05-10T04:08:01;46.47;;;19.58;;
20669;SDS011;10494;50.868;4.180;2023-05-10T04:10:27;40.80;;;18.80;;
20669;SDS011;10494;50.868;4.180;2023-05-10T04:12:53;39.67;;;17.98;;
20669;SDS011;10494;50.868;4.180;2023-05-10T04:15:19;39.67;;;19.90;;
20669;SDS011;10494;50.868;4.180;2023-05-10T04:17:44;38.05;;;18.48;;
20669;SDS011;10494;50.868;4.180;2023-05-10T04:20:10;44.25;;;19.30;;
20669;SDS011;10494;50.868;4.180;2023-05-10T04:22:36;36.55;;;18.80;;
20669;SDS011;10494;50.868;4.180;2023-05-10T04:25:02;52.08;;;19.90;;
20669;SDS011;10494;50.868;4.180;2023-05-10T04:27:29;38.58;;;19.75;;
20669;SDS011;10494;50.868;4.180;2023-05-10T04:29:54;42.13;;;20.33;;
20669;SDS011;10494;50.868;4.180;2023-05-10T04:32:20;42.40;;;19.45;;
20669;SDS011;10494;50.868;4.180;2023-05-10T04:34:46;41.60;;;19.95;;
20669;SDS011;10494;50.868;4.180;2023-05-10T04:37:12;43.17;;;20.63;;
20669;SDS011;10494;50.868;4.180;2023-05-10T04:39:37;39.85;;;19.52;;
20669;SDS011;10494;50.868;4.180;2023-05-10T04:42:03;47.20;;;20.95;;
20669;SDS011;10494;50.868;4.180;2023-05-10T04:44:30;45.47;;;20.15;;
20669;SDS011;10494;50.868;4.180;2023-05-10T04:46:56;36.28;;;18.88;;
20669;SDS011;10494;50.868;4.180;2023-05-10T04:49:22;46.50;;;18.83;;
20669;SDS011;10494;50.868;4.180;2023-05-10T04:51:48;34.92;;;18.05;;
20669;SDS011;10494;50.868;4.180;2023-05-10T04:54:13;44.28;;;17.80;;
20669;SDS011;10494;50.868;4.180;2023-05-10T04:56:39;104.05;;;21.42;;
20669;SDS011;10494;50.868;4.180;2023-05-10T04:59:05;39.03;;;19.25;;
20669;SDS011;10494;50.868;4.180;2023-05-10T05:01:33;39.63;;;17.80;;
20669;SDS011;10494;50.868;4.180;2023-05-10T05:03:58;37.00;;;17.35;;
20669;SDS011;10494;50.868;4.180;2023-05-10T05:06:24;43.45;;;18.67;;
20669;SDS011;10494;50.868;4.180;2023-05-10T05:08:50;34.80;;;18.13;;
20669;SDS011;10494;50.868;4.180;2023-05-10T05:11:16;41.20;;;17.42;;
20669;SDS011;10494;50.868;4.180;2023-05-10T05:13:42;42.20;;;17.08;;
20669;SDS011;10494;50.868;4.180;2023-05-10T05:16:08;38.03;;;16.88;;
20669;SDS011;10494;50.868;4.180;2023-05-10T05:18:34;41.08;;;16.65;;
20669;SDS011;10494;50.868;4.180;2023-05-10T05:20:59;31.15;;;14.73;;
20669;SDS011;10494;50.868;4.180;2023-05-10T05:23:26;31.85;;;13.90;;
20669;SDS011;10494;50.868;4.180;2023-05-10T05:25:52;28.63;;;15.00;;
20669;SDS011;10494;50.868;4.180;2023-05-10T05:28:18;37.05;;;15.32;;
20669;SDS011;10494;50.868;4.180;2023-05-10T05:30:45;31.20;;;15.40;;
20669;SDS011;10494;50.868;4.180;2023-05-10T05:33:11;37.13;;;16.50;;
20669;SDS011;10494;50.868;4.180;2023-05-10T05:35:38;34.25;;;16.00;;
20669;SDS011;10494;50.868;4.180;2023-05-10T05:38:03;31.98;;;15.80;;
20669;SDS011;10494;50.868;4.180;2023-05-10T05:40:29;34.38;;;16.30;;
20669;SDS011;10494;50.868;4.180;2023-05-10T05:42:54;32.78;;;17.60;;
20669;SDS011;10494;50.868;4.180;2023-05-10T05:45:20;31.80;;;16.00;;
20669;SDS011;10494;50.868;4.180;2023-05-10T05:47:46;46.25;;;18.38;;
20669;SDS011;10494;50.868;4.180;2023-05-10T05:50:12;44.28;;;17.52;;
20669;SDS011;10494;50.868;4.180;2023-05-10T05:52:37;38.90;;;17.88;;
20669;SDS011;10494;50.868;4.180;2023-05-10T05:55:03;35.05;;;17.33;;
20669;SDS011;10494;50.868;4.180;2023-05-10T05:57:29;46.75;;;19.00;;
20669;SDS011;10494;50.868;4.180;2023-05-10T05:59:55;45.35;;;19.20;;
20669;SDS011;10494;50.868;4.180;2023-05-10T06:02:21;45.25;;;19.70;;
20669;SDS011;10494;50.868;4.180;2023-05-10T06:04:46;44.15;;;19.77;;
20669;SDS011;10494;50.868;4.180;2023-05-10T06:07:12;50.65;;;20.17;;
20669;SDS011;10494;50.868;4.180;2023-05-10T06:09:38;50.30;;;19.52;;
20669;SDS011;10494;50.868;4.180;2023-05-10T06:12:03;44.17;;;19.88;;
20669;SDS011;10494;50.868;4.180;2023-05-10T06:14:30;47.63;;;20.38;;
20669;SDS011;10494;50.868;4.180;2023-05-10T06:16:55;48.10;;;19.70;;
20669;SDS011;10494;50.868;4.180;2023-05-10T06:19:21;48.97;;;21.70;;
20669;SDS011;10494;50.868;4.180;2023-05-10T06:21:47;47.38;;;20.90;;
20669;SDS011;10494;50.868;4.180;2023-05-10T06:24:12;46.00;;;19.73;;
20669;SDS011;10494;50.868;4.180;2023-05-10T06:26:38;51.47;;;21.08;;
20669;SDS011;10494;50.868;4.180;2023-05-10T06:29:03;45.15;;;19.95;;
20669;SDS011;10494;50.868;4.180;2023-05-10T06:31:29;51.42;;;21.95;;
20669;SDS011;10494;50.868;4.180;2023-05-10T06:33:55;49.28;;;20.83;;
20669;SDS011;10494;50.868;4.180;2023-05-10T06:36:20;36.97;;;19.35;;
20669;SDS011;10494;50.868;4.180;2023-05-10T06:38:46;46.72;;;19.25;;
20669;SDS011;10494;50.868;4.180;2023-05-10T06:41:12;48.58;;;20.05;;
20669;SDS011;10494;50.868;4.180;2023-05-10T06:43:38;43.35;;;20.05;;
20669;SDS011;10494;50.868;4.180;2023-05-10T06:46:06;46.17;;;19.38;;
20669;SDS011;10494;50.868;4.180;2023-05-10T06:48:32;51.22;;;19.70;;
20669;SDS011;10494;50.868;4.180;2023-05-10T06:50:57;36.72;;;18.15;;
20669;SDS011;10494;50.868;4.180;2023-05-10T06:53:23;42.65;;;19.77;;
20669;SDS011;10494;50.868;4.180;2023-05-10T06:55:49;37.28;;;18.10;;
20669;SDS011;10494;50.868;4.180;2023-05-10T06:58:14;43.33;;;19.00;;
20669;SDS011;10494;50.868;4.180;2023-05-10T07:00:40;38.20;;;17.52;;
20669;SDS011;10494;50.868;4.180;2023-05-10T07:03:08;35.72;;;17.48;;
20669;SDS011;10494;50.868;4.180;2023-05-10T07:05:35;42.05;;;17.08;;
20669;SDS011;10494;50.868;4.180;2023-05-10T07:08:00;33.72;;;15.80;;
20669;SDS011;10494;50.868;4.180;2023-05-10T07:10:26;45.38;;;15.77;;
20669;SDS011;10494;50.868;4.180;2023-05-10T07:12:52;29.58;;;15.52;;
20669;SDS011;10494;50.868;4.180;2023-05-10T07:15:18;35.20;;;15.63;;
20669;SDS011;10494;50.868;4.180;2023-05-10T07:17:43;35.25;;;15.65;;
20669;SDS011;10494;50.868;4.180;2023-05-10T07:20:10;27.80;;;13.65;;
20669;SDS011;10494;50.868;4.180;2023-05-10T07:22:36;30.05;;;12.57;;
20669;SDS011;10494;50.868;4.180;2023-05-10T07:25:01;28.40;;;12.45;;
20669;SDS011;10494;50.868;4.180;2023-05-10T07:27:27;27.83;;;13.50;;
20669;SDS011;10494;50.868;4.180;2023-05-10T07:29:53;32.50;;;11.25;;
20669;SDS011;10494;50.868;4.180;2023-05-10T07:32:19;23.30;;;11.60;;
20669;SDS011;10494;50.868;4.180;2023-05-10T07:34:45;25.33;;;11.45;;
20669;SDS011;10494;50.868;4.180;2023-05-10T07:37:11;28.92;;;11.38;;
20669;SDS011;10494;50.868;4.180;2023-05-10T07:39:36;26.55;;;11.05;;
20669;SDS011;10494;50.868;4.180;2023-05-10T07:42:02;23.17;;;11.48;;
20669;SDS011;10494;50.868;4.180;2023-05-10T07:44:28;20.33;;;10.18;;
20669;SDS011;10494;50.868;4.180;2023-05-10T07:46:54;19.45;;;9.80;;
20669;SDS011;10494;50.868;4.180;2023-05-10T07:49:20;21.80;;;9.85;;
20669;SDS011;10494;50.868;4.180;2023-05-10T07:51:46;22.05;;;9.98;;
20669;SDS011;10494;50.868;4.180;2023-05-10T07:54:14;18.58;;;9.70;;
20669;SDS011;10494;50.868;4.180;2023-05-10T07:56:40;28.60;;;10.63;;
20669;SDS011;10494;50.868;4.180;2023-05-10T07:59:10;19.55;;;9.82;;
20669;SDS011;10494;50.868;4.180;2023-05-10T08:01:41;20.80;;;10.23;;
20669;SDS011;10494;50.868;4.180;2023-05-10T08:04:08;21.42;;;9.70;;
20669;SDS011;10494;50.868;4.180;2023-05-10T08:06:34;22.30;;;10.18;;
20669;SDS011;10494;50.868;4.180;2023-05-10T08:08:59;19.33;;;10.32;;
20669;SDS011;10494;50.868;4.180;2023-05-10T08:11:25;15.80;;;8.18;;
20669;SDS011;10494;50.868;4.180;2023-05-10T08:13:52;16.85;;;8.35;;
20669;SDS011;10494;50.868;4.180;2023-05-10T08:16:19;16.40;;;8.40;;
20669;SDS011;10494;50.868;4.180;2023-05-10T08:18:45;13.55;;;7.80;;
20669;SDS011;10494;50.868;4.180;2023-05-10T08:21:12;11.70;;;6.90;;
20669;SDS011;10494;50.868;4.180;2023-05-10T08:23:38;13.00;;;7.45;;
20669;SDS011;10494;50.868;4.180;2023-05-10T08:26:04;16.58;;;7.35;;
20669;SDS011;10494;50.868;4.180;2023-05-10T08:28:30;10.70;;;7.30;;
20669;SDS011;10494;50.868;4.180;2023-05-10T08:30:55;16.48;;;6.80;;
20669;SDS011;10494;50.868;4.180;2023-05-10T08:33:21;11.98;;;7.35;;
20669;SDS011;10494;50.868;4.180;2023-05-10T08:35:47;10.73;;;6.75;;
20669;SDS011;10494;50.868;4.180;2023-05-10T08:38:13;16.10;;;6.43;;
20669;SDS011;10494;50.868;4.180;2023-05-10T08:40:42;11.88;;;7.38;;
20669;SDS011;10494;50.868;4.180;2023-05-10T08:43:08;10.43;;;7.20;;
20669;SDS011;10494;50.868;4.180;2023-05-10T08:45:37;12.93;;;7.53;;
20669;SDS011;10494;50.868;4.180;2023-05-10T08:48:07;13.27;;;7.45;;
20669;SDS011;10494;50.868;4.180;2023-05-10T08:50:37;12.15;;;7.38;;
20669;SDS011;10494;50.868;4.180;2023-05-10T08:53:05;14.20;;;7.25;;
20669;SDS011;10494;50.868;4.180;2023-05-10T08:55:37;12.05;;;7.55;;
20669;SDS011;10494;50.868;4.180;2023-05-10T08:58:06;14.68;;;8.13;;
20669;SDS011;10494;50.868;4.180;2023-05-10T09:00:33;12.13;;;7.65;;
20669;SDS011;10494;50.868;4.180;2023-05-10T09:03:00;16.00;;;8.32;;
20669;SDS011;10494;50.868;4.180;2023-05-10T09:05:26;13.43;;;7.78;;
20669;SDS011;10494;50.868;4.180;2023-05-10T09:07:52;12.38;;;8.30;;
20669;SDS011;10494;50.868;4.180;2023-05-10T09:10:18;16.98;;;8.30;;
20669;SDS011;10494;50.868;4.180;2023-05-10T09:12:45;15.70;;;8.68;;
20669;SDS011;10494;50.868;4.180;2023-05-10T09:15:12;16.00;;;8.55;;
20669;SDS011;10494;50.868;4.180;2023-05-10T09:17:40;16.10;;;8.98;;
20669;SDS011;10494;50.868;4.180;2023-05-10T09:20:07;13.57;;;8.10;;
20669;SDS011;10494;50.868;4.180;2023-05-10T09:22:33;17.60;;;8.52;;
20669;SDS011;10494;50.868;4.180;2023-05-10T09:27:35;11.48;;;8.02;;
20669;SDS011;10494;50.868;4.180;2023-05-10T09:30:02;14.85;;;8.27;;
20669;SDS011;10494;50.868;4.180;2023-05-10T09:35:09;15.63;;;8.82;;
20669;SDS011;10494;50.868;4.180;2023-05-10T09:37:40;16.40;;;8.45;;
20669;SDS011;10494;50.868;4.180;2023-05-10T09:40:08;20.80;;;8.93;;
20669;SDS011;10494;50.868;4.180;2023-05-10T09:42:37;14.52;;;8.05;;
20669;SDS011;10494;50.868;4.180;2023-05-10T09:45:04;16.42;;;8.98;;
20669;SDS011;10494;50.868;4.180;2023-05-10T09:47:34;16.33;;;8.40;;
20669;SDS011;10494;50.868;4.180;2023-05-10T09:50:00;14.80;;;8.63;;
20669;SDS011;10494;50.868;4.180;2023-05-10T09:52:28;15.98;;;7.90;;
20669;SDS011;10494;50.868;4.180;2023-05-10T09:55:13;13.52;;;8.05;;
20669;SDS011;10494;50.868;4.180;2023-05-10T09:57:39;11.10;;;8.10;;
20669;SDS011;10494;50.868;4.180;2023-05-10T10:00:05;12.23;;;6.95;;
20669;SDS011;10494;50.868;4.180;2023-05-10T10:02:32;10.25;;;6.40;;
20669;SDS011;10494;50.868;4.180;2023-05-10T10:05:00;9.10;;;6.80;;
20669;SDS011;10494;50.868;4.180;2023-05-10T10:07:26;9.95;;;6.75;;
20669;SDS011;10494;50.868;4.180;2023-05-10T10:09:52;9.80;;;6.72;;
20669;SDS011;10494;50.868;4.180;2023-05-10T10:12:19;10.32;;;7.22;;
20669;SDS011;10494;50.868;4.180;2023-05-10T10:14:48;9.95;;;6.75;;
20669;SDS011;10494;50.868;4.180;2023-05-10T10:17:15;11.63;;;6.22;;
20669;SDS011;10494;50.868;4.180;2023-05-10T10:19:41;9.43;;;7.22;;
20669;SDS011;10494;50.868;4.180;2023-05-10T10:22:07;12.07;;;6.97;;
20669;SDS011;10494;50.868;4.180;2023-05-10T10:24:33;12.38;;;7.25;;
20669;SDS011;10494;50.868;4.180;2023-05-10T10:35:55;12.23;;;6.82;;
20669;SDS011;10494;50.868;4.180;2023-05-10T10:38:23;12.40;;;7.97;;
20669;SDS011;10494;50.868;4.180;2023-05-10T10:41:01;13.20;;;7.50;;
20669;SDS011;10494;50.868;4.180;2023-05-10T10:43:28;12.60;;;7.72;;
20669;SDS011;10494;50.868;4.180;2023-05-10T10:49:25;13.38;;;7.47;;
20669;SDS011;10494;50.868;4.180;2023-05-10T10:51:38;16.70;;;8.45;;
20669;SDS011;10494;50.868;4.180;2023-05-10T10:54:11;12.77;;;8.85;;
20669;SDS011;10494;50.868;4.180;2023-05-10T10:56:37;15.45;;;8.77;;
20669;SDS011;10494;50.868;4.180;2023-05-10T10:59:02;16.25;;;9.85;;
20669;SDS011;10494;50.868;4.180;2023-05-10T11:01:32;15.80;;;8.77;;
20669;SDS011;10494;50.868;4.180;2023-05-10T11:06:32;14.07;;;8.65;;
20669;SDS011;10494;50.868;4.180;2023-05-10T11:08:59;15.60;;;9.27;;
20669;SDS011;10494;50.868;4.180;2023-05-10T11:11:31;14.38;;;9.52;;
20669;SDS011;10494;50.868;4.180;2023-05-10T11:14:02;14.00;;;8.55;;
20669;SDS011;10494;50.868;4.180;2023-05-10T11:16:29;14.75;;;8.88;;
20669;SDS011;10494;50.868;4.180;2023-05-10T11:19:08;16.52;;;9.73;;
20669;SDS011;10494;50.868;4.180;2023-05-10T11:21:44;20.40;;;8.98;;
20669;SDS011;10494;50.868;4.180;2023-05-10T11:24:15;13.60;;;8.80;;
20669;SDS011;10494;50.868;4.180;2023-05-10T11:26:42;16.08;;;8.70;;
20669;SDS011;10494;50.868;4.180;2023-05-10T11:29:08;12.45;;;8.15;;
20669;SDS011;10494;50.868;4.180;2023-05-10T11:31:34;13.52;;;8.15;;
20669;SDS011;10494;50.868;4.180;2023-05-10T11:34:00;12.93;;;8.27;;
20669;SDS011;10494;50.868;4.180;2023-05-10T11:36:34;13.30;;;8.55;;
20669;SDS011;10494;50.868;4.180;2023-05-10T11:39:00;17.10;;;8.70;;
20669;SDS011;10494;50.868;4.180;2023-05-10T11:41:28;15.70;;;8.40;;
20669;SDS011;10494;50.868;4.180;2023-05-10T11:43:55;14.00;;;8.23;;
20669;SDS011;10494;50.868;4.180;2023-05-10T11:46:23;10.77;;;7.50;;
20669;SDS011;10494;50.868;4.180;2023-05-10T11:48:50;13.98;;;9.23;;
20669;SDS011;10494;50.868;4.180;2023-05-10T11:51:24;11.23;;;8.20;;
20669;SDS011;10494;50.868;4.180;2023-05-10T11:53:54;11.98;;;8.27;;
20669;SDS011;10494;50.868;4.180;2023-05-10T11:56:20;13.85;;;7.97;;
20669;SDS011;10494;50.868;4.180;2023-05-10T11:58:52;13.82;;;8.25;;
20669;SDS011;10494;50.868;4.180;2023-05-10T12:01:18;14.95;;;8.65;;
20669;SDS011;10494;50.868;4.180;2023-05-10T12:03:45;12.13;;;8.52;;
20669;SDS011;10494;50.868;4.180;2023-05-10T12:06:11;11.70;;;8.07;;
20669;SDS011;10494;50.868;4.180;2023-05-10T12:08:43;11.00;;;8.02;;
20669;SDS011;10494;50.868;4.180;2023-05-10T12:11:10;11.82;;;8.07;;
20669;SDS011;10494;50.868;4.180;2023-05-10T12:13:37;12.38;;;8.48;;
20669;SDS011;10494;50.868;4.180;2023-05-10T12:16:22;15.18;;;9.45;;
20669;SDS011;10494;50.868;4.180;2023-05-10T12:18:50;11.50;;;8.23;;
20669;SDS011;10494;50.868;4.180;2023-05-10T12:21:17;11.23;;;7.60;;
20669;SDS011;10494;50.868;4.180;2023-05-10T12:23:45;10.98;;;7.93;;
20669;SDS011;10494;50.868;4.180;2023-05-10T12:26:18;12.38;;;8.20;;
20669;SDS011;10494;50.868;4.180;2023-05-10T12:28:47;13.25;;;8.40;;
20669;SDS011;10494;50.868;4.180;2023-05-10T12:31:12;12.70;;;8.38;;
20669;SDS011;10494;50.868;4.180;2023-05-10T12:33:39;12.80;;;8.35;;
20669;SDS011;10494;50.868;4.180;2023-05-10T12:36:08;11.23;;;8.60;;
20669;SDS011;10494;50.868;4.180;2023-05-10T12:38:38;12.52;;;8.38;;
20669;SDS011;10494;50.868;4.180;2023-05-10T12:41:12;15.60;;;9.02;;
20669;SDS011;10494;50.868;4.180;2023-05-10T12:43:38;16.42;;;8.57;;
20669;SDS011;10494;50.868;4.180;2023-05-10T12:46:07;12.40;;;8.40;;
20669;SDS011;10494;50.868;4.180;2023-05-10T12:48:37;14.07;;;8.43;;
20669;SDS011;10494;50.868;4.180;2023-05-10T12:51:04;15.68;;;8.65;;
20669;SDS011;10494;50.868;4.180;2023-05-10T12:53:34;11.93;;;7.63;;
20669;SDS011;10494;50.868;4.180;2023-05-10T12:56:00;14.00;;;8.50;;
20669;SDS011;10494;50.868;4.180;2023-05-10T12:58:26;13.18;;;8.73;;
20669;SDS011;10494;50.868;4.180;2023-05-10T13:00:53;11.88;;;8.93;;
20669;SDS011;10494;50.868;4.180;2023-05-10T13:03:21;15.80;;;9.32;;
20669;SDS011;10494;50.868;4.180;2023-05-10T13:05:47;12.98;;;9.18;;
20669;SDS011;10494;50.868;4.180;2023-05-10T13:08:13;13.65;;;9.00;;
20669;SDS011;10494;50.868;4.180;2023-05-10T13:10:38;12.15;;;8.75;;
20669;SDS011;10494;50.868;4.180;2023-05-10T13:13:04;12.90;;;8.30;;
20669;SDS011;10494;50.868;4.180;2023-05-10T13:15:30;14.00;;;9.10;;
20669;SDS011;10494;50.868;4.180;2023-05-10T13:17:56;12.57;;;9.05;;
20669;SDS011;10494;50.868;4.180;2023-05-10T13:20:21;15.38;;;8.85;;
20669;SDS011;10494;50.868;4.180;2023-05-10T13:22:47;13.85;;;9.32;;
20669;SDS011;10494;50.868;4.180;2023-05-10T13:25:12;16.20;;;9.85;;
20669;SDS011;10494;50.868;4.180;2023-05-10T13:27:39;17.58;;;9.50;;
20669;SDS011;10494;50.868;4.180;2023-05-10T13:30:06;12.38;;;9.13;;
20669;SDS011;10494;50.868;4.180;2023-05-10T13:32:36;12.25;;;9.05;;
20669;SDS011;10494;50.868;4.180;2023-05-10T13:35:02;15.38;;;9.52;;
20669;SDS011;10494;50.868;4.180;2023-05-10T13:37:28;15.30;;;9.77;;
20669;SDS011;10494;50.868;4.180;2023-05-10T13:39:55;13.05;;;9.27;;
20669;SDS011;10494;50.868;4.180;2023-05-10T13:42:22;15.77;;;9.90;;
20669;SDS011;10494;50.868;4.180;2023-05-10T13:44:48;15.27;;;10.60;;
20669;SDS011;10494;50.868;4.180;2023-05-10T13:47:14;13.63;;;9.93;;
20669;SDS011;10494;50.868;4.180;2023-05-10T13:49:40;15.60;;;10.40;;
20669;SDS011;10494;50.868;4.180;2023-05-10T13:52:06;15.60;;;10.10;;
20669;SDS011;10494;50.868;4.180;2023-05-10T13:54:38;16.67;;;10.82;;
20669;SDS011;10494;50.868;4.180;2023-05-10T13:57:04;15.52;;;11.00;;
20669;SDS011;10494;50.868;4.180;2023-05-10T13:59:30;17.10;;;10.25;;
20669;SDS011;10494;50.868;4.180;2023-05-10T14:01:59;16.77;;;11.35;;
20669;SDS011;10494;50.868;4.180;2023-05-10T14:04:27;25.90;;;12.70;;
20669;SDS011;10494;50.868;4.180;2023-05-10T14:06:54;31.83;;;12.35;;
20669;SDS011;10494;50.868;4.180;2023-05-10T14:09:19;16.35;;;10.18;;
20669;SDS011;10494;50.868;4.180;2023-05-10T14:11:45;15.02;;;10.00;;
20669;SDS011;10494;50.868;4.180;2023-05-10T14:14:11;14.48;;;10.50;;
20669;SDS011;10494;50.868;4.180;2023-05-10T14:16:38;17.20;;;10.18;;
20669;SDS011;10494;50.868;4.180;2023-05-10T14:19:08;15.77;;;10.18;;
20669;SDS011;10494;50.868;4.180;2023-05-10T14:21:34;16.52;;;10.15;;
20669;SDS011;10494;50.868;4.180;2023-05-10T14:24:00;16.67;;;10.60;;
20669;SDS011;10494;50.868;4.180;2023-05-10T14:26:25;14.90;;;9.38;;
20669;SDS011;10494;50.868;4.180;2023-05-10T14:28:51;15.13;;;10.05;;
20669;SDS011;10494;50.868;4.180;2023-05-10T14:31:17;16.92;;;10.77;;
20669;SDS011;10494;50.868;4.180;2023-05-10T14:33:45;14.88;;;9.95;;
20669;SDS011;10494;50.868;4.180;2023-05-10T14:36:11;17.67;;;10.85;;
20669;SDS011;10494;50.868;4.180;2023-05-10T14:38:37;13.65;;;9.93;;
20669;SDS011;10494;50.868;4.180;2023-05-10T14:41:04;16.17;;;10.45;;
20669;SDS011;10494;50.868;4.180;2023-05-10T14:43:30;17.45;;;10.68;;
20669;SDS011;10494;50.868;4.180;2023-05-10T14:45:55;13.38;;;8.10;;
20669;SDS011;10494;50.868;4.180;2023-05-10T14:48:21;12.73;;;7.03;;
20669;SDS011;10494;50.868;4.180;2023-05-10T14:50:47;10.85;;;5.10;;
20669;SDS011;10494;50.868;4.180;2023-05-10T14:53:14;8.48;;;5.32;;
20669;SDS011;10494;50.868;4.180;2023-05-10T14:55:40;10.30;;;4.80;;
20669;SDS011;10494;50.868;4.180;2023-05-10T14:58:06;8.68;;;5.28;;
20669;SDS011;10494;50.868;4.180;2023-05-10T15:00:32;7.47;;;4.88;;
20669;SDS011;10494;50.868;4.180;2023-05-10T15:03:00;8.23;;;5.50;;
20669;SDS011;10494;50.868;4.180;2023-05-10T15:05:26;12.50;;;6.18;;
20669;SDS011;10494;50.868;4.180;2023-05-10T15:07:52;11.95;;;6.63;;